CCA4233 ZUUU-ZSOF
Flight info
| Callsign | CCA4233 |
|---|---|
| Flight time | 1h 41m |
| Altitude | 37100 |
| Route | UBRAB9Z UBRAB B213 WHA R343 MIDOX MID02A |
| Aircraft | A320/M-SDE3FGHIRWY/LB1 |
Departure
| Time | 2026-04-21 11:10 |
|---|---|
| Airport | Chengdu Shuangliu International Airport (ZUUU) |
Arrival
| Time | 2026-04-21 12:51 |
|---|---|
| Airport | Hefei Xinqiao International Airport (ZSOF) |
| Time | Latitude | Longitude | Altitude | Speed | Heading |
|---|---|---|---|---|---|
| 2026-04-21 10:46 | 30.58527 | 103.95639 | 1647 ft | 0 kts | 200° |
| 2026-04-21 10:58 | 30.58527 | 103.95640 | 1647 ft | 0 kts | 200° |
| 2026-04-21 10:59 | 30.58530 | 103.95641 | 1647 ft | 2 kts | 200° |
| 2026-04-21 10:59 | 30.58545 | 103.95648 | 1647 ft | 2 kts | 204° |
| 2026-04-21 11:00 | 30.58560 | 103.95655 | 1647 ft | 2 kts | 207° |
| 2026-04-21 11:00 | 30.58574 | 103.95665 | 1647 ft | 2 kts | 214° |
| 2026-04-21 11:00 | 30.58587 | 103.95677 | 1647 ft | 2 kts | 234° |
| 2026-04-21 11:00 | 30.58594 | 103.95694 | 1647 ft | 2 kts | 281° |
| 2026-04-21 11:01 | 30.58592 | 103.95705 | 1647 ft | 1 kts | 292° |
| 2026-04-21 11:01 | 30.58591 | 103.95706 | 1647 ft | 0 kts | 292° |
| 2026-04-21 11:03 | 30.58594 | 103.95700 | 1647 ft | 2 kts | 292° |
| 2026-04-21 11:03 | 30.58601 | 103.95678 | 1647 ft | 4 kts | 291° |
| 2026-04-21 11:03 | 30.58613 | 103.95643 | 1647 ft | 6 kts | 291° |
| 2026-04-21 11:04 | 30.58629 | 103.95595 | 1647 ft | 7 kts | 291° |
| 2026-04-21 11:04 | 30.58644 | 103.95530 | 1647 ft | 9 kts | 279° |
| 2026-04-21 11:04 | 30.58651 | 103.95497 | 1647 ft | 4 kts | 287° |
| 2026-04-21 11:04 | 30.58661 | 103.95463 | 1647 ft | 5 kts | 288° |
| 2026-04-21 11:05 | 30.58678 | 103.95416 | 1647 ft | 7 kts | 292° |
| 2026-04-21 11:05 | 30.58699 | 103.95357 | 1647 ft | 9 kts | 298° |
| 2026-04-21 11:05 | 30.58756 | 103.95343 | 1647 ft | 10 kts | 20° |
| 2026-04-21 11:05 | 30.58824 | 103.95376 | 1647 ft | 11 kts | 22° |
| 2026-04-21 11:06 | 30.58904 | 103.95413 | 1647 ft | 13 kts | 21° |
| 2026-04-21 11:06 | 30.58998 | 103.95457 | 1647 ft | 15 kts | 22° |
| 2026-04-21 11:06 | 30.59103 | 103.95506 | 1647 ft | 17 kts | 21° |
| 2026-04-21 11:06 | 30.59224 | 103.95560 | 1647 ft | 20 kts | 21° |
| 2026-04-21 11:07 | 30.59281 | 103.95565 | 1647 ft | 6 kts | 332° |
| 2026-04-21 11:07 | 30.59301 | 103.95528 | 1647 ft | 0 kts | 291° |
| 2026-04-21 11:07 | 30.59306 | 103.95516 | 1647 ft | 3 kts | 291° |
| 2026-04-21 11:07 | 30.59316 | 103.95486 | 1646 ft | 5 kts | 292° |
| 2026-04-21 11:08 | 30.59327 | 103.95438 | 1646 ft | 7 kts | 276° |
| 2026-04-21 11:08 | 30.59310 | 103.95383 | 1647 ft | 8 kts | 229° |
| 2026-04-21 11:08 | 30.59275 | 103.95361 | 1647 ft | 0 kts | 200° |
| 2026-04-21 11:08 | 30.59266 | 103.95357 | 1647 ft | 2 kts | 201° |
| 2026-04-21 11:09 | 30.59165 | 103.95311 | 1648 ft | 48 kts | 201° |
| 2026-04-21 11:09 | 30.58620 | 103.95058 | 1648 ft | 117 kts | 202° |
| 2026-04-21 11:09 | 30.57690 | 103.94629 | 1674 ft | 166 kts | 200° |
| 2026-04-21 11:09 | 30.56599 | 103.94138 | 2219 ft | 169 kts | 200° |
| 2026-04-21 11:10 | 30.55496 | 103.93629 | 2845 ft | 173 kts | 202° |
| 2026-04-21 11:10 | 30.54383 | 103.93084 | 3440 ft | 175 kts | 203° |
| 2026-04-21 11:10 | 30.53260 | 103.92521 | 3966 ft | 176 kts | 204° |
| 2026-04-21 11:10 | 30.52156 | 103.91956 | 4500 ft | 176 kts | 204° |
| 2026-04-21 11:11 | 30.51027 | 103.91382 | 4946 ft | 183 kts | 204° |
| 2026-04-21 11:11 | 30.49790 | 103.90751 | 5182 ft | 205 kts | 206° |
| 2026-04-21 11:11 | 30.48668 | 103.89635 | 5397 ft | 227 kts | 245° |
| 2026-04-21 11:11 | 30.48423 | 103.87810 | 5709 ft | 242 kts | 286° |
| 2026-04-21 11:12 | 30.49274 | 103.86106 | 6086 ft | 256 kts | 323° |
| 2026-04-21 11:12 | 30.50917 | 103.85326 | 6647 ft | 262 kts | 359° |
| 2026-04-21 11:12 | 30.52710 | 103.85712 | 7389 ft | 266 kts | 21° |
| 2026-04-21 11:12 | 30.54407 | 103.86616 | 8198 ft | 271 kts | 28° |
| 2026-04-21 11:13 | 30.56088 | 103.87643 | 9000 ft | 276 kts | 28° |
| 2026-04-21 11:13 | 30.57822 | 103.88665 | 9788 ft | 282 kts | 26° |
| 2026-04-21 11:13 | 30.59638 | 103.89646 | 10251 ft | 299 kts | 25° |
| 2026-04-21 11:13 | 30.61626 | 103.90629 | 10465 ft | 322 kts | 23° |
| 2026-04-21 11:14 | 30.63779 | 103.91620 | 10690 ft | 343 kts | 21° |
| 2026-04-21 11:14 | 30.66043 | 103.92610 | 11214 ft | 352 kts | 21° |
| 2026-04-21 11:14 | 30.68366 | 103.93603 | 11819 ft | 358 kts | 22° |
| 2026-04-21 11:14 | 30.70604 | 103.94905 | 12422 ft | 363 kts | 34° |
| 2026-04-21 11:15 | 30.72560 | 103.96788 | 13008 ft | 368 kts | 48° |
| 2026-04-21 11:15 | 30.74107 | 103.99165 | 13594 ft | 372 kts | 61° |
| 2026-04-21 11:15 | 30.75174 | 104.01911 | 14122 ft | 375 kts | 71° |
| 2026-04-21 11:15 | 30.76089 | 104.04766 | 14642 ft | 380 kts | 71° |
| 2026-04-21 11:16 | 30.77027 | 104.07662 | 15151 ft | 384 kts | 70° |
| 2026-04-21 11:16 | 30.77977 | 104.10585 | 15667 ft | 389 kts | 70° |
| 2026-04-21 11:16 | 30.78941 | 104.13548 | 16183 ft | 394 kts | 70° |
| 2026-04-21 11:16 | 30.79917 | 104.16547 | 16673 ft | 399 kts | 70° |
| 2026-04-21 11:17 | 30.80905 | 104.19584 | 17188 ft | 404 kts | 70° |
| 2026-04-21 11:17 | 30.81902 | 104.22667 | 17703 ft | 409 kts | 70° |
| 2026-04-21 11:17 | 30.82908 | 104.25788 | 18218 ft | 415 kts | 70° |
| 2026-04-21 11:17 | 30.83927 | 104.28947 | 18668 ft | 420 kts | 70° |
| 2026-04-21 11:18 | 30.84958 | 104.32140 | 19165 ft | 424 kts | 70° |
| 2026-04-21 11:18 | 30.86000 | 104.35365 | 19649 ft | 428 kts | 70° |
| 2026-04-21 11:18 | 30.87050 | 104.38623 | 20152 ft | 432 kts | 70° |
| 2026-04-21 11:18 | 30.88050 | 104.41940 | 20643 ft | 436 kts | 72° |
| 2026-04-21 11:19 | 30.88972 | 104.45326 | 21126 ft | 440 kts | 73° |
| 2026-04-21 11:19 | 30.89844 | 104.48758 | 21586 ft | 444 kts | 74° |
| 2026-04-21 11:19 | 30.90700 | 104.52231 | 22033 ft | 448 kts | 74° |
| 2026-04-21 11:19 | 30.91564 | 104.55734 | 22474 ft | 452 kts | 73° |
| 2026-04-21 11:20 | 30.92449 | 104.59264 | 22904 ft | 456 kts | 73° |
| 2026-04-21 11:20 | 30.93358 | 104.62819 | 23325 ft | 460 kts | 73° |
| 2026-04-21 11:20 | 30.94288 | 104.66396 | 23695 ft | 463 kts | 72° |
| 2026-04-21 11:20 | 30.95234 | 104.70001 | 24049 ft | 467 kts | 72° |
| 2026-04-21 11:21 | 30.96185 | 104.73625 | 24402 ft | 469 kts | 72° |
| 2026-04-21 11:21 | 30.97135 | 104.77275 | 24753 ft | 472 kts | 72° |
| 2026-04-21 11:21 | 30.98086 | 104.80951 | 25104 ft | 475 kts | 72° |
| 2026-04-21 11:21 | 30.99025 | 104.84597 | 25436 ft | 478 kts | 72° |
| 2026-04-21 11:22 | 30.99979 | 104.88316 | 25782 ft | 481 kts | 73° |
| 2026-04-21 11:22 | 31.00648 | 104.92142 | 26127 ft | 484 kts | 83° |
| 2026-04-21 11:22 | 31.00778 | 104.96063 | 26451 ft | 486 kts | 94° |
| 2026-04-21 11:22 | 31.00366 | 104.99975 | 26799 ft | 487 kts | 103° |
| 2026-04-21 11:23 | 30.99428 | 105.03769 | 27120 ft | 488 kts | 113° |
| 2026-04-21 11:23 | 30.98060 | 105.07392 | 27442 ft | 490 kts | 117° |
| 2026-04-21 11:23 | 30.96629 | 105.11006 | 27754 ft | 493 kts | 117° |
| 2026-04-21 11:23 | 30.95189 | 105.14641 | 28067 ft | 496 kts | 117° |
| 2026-04-21 11:24 | 30.93739 | 105.18295 | 28374 ft | 499 kts | 117° |
| 2026-04-21 11:24 | 30.92279 | 105.21974 | 28661 ft | 502 kts | 117° |
| 2026-04-21 11:24 | 30.90808 | 105.25674 | 28968 ft | 504 kts | 117° |
| 2026-04-21 11:24 | 30.89333 | 105.29381 | 29388 ft | 505 kts | 117° |
| 2026-04-21 11:25 | 30.87855 | 105.33090 | 29789 ft | 505 kts | 116° |
| 2026-04-21 11:25 | 30.86582 | 105.36910 | 30159 ft | 508 kts | 108° |
| 2026-04-21 11:25 | 30.85817 | 105.40930 | 30501 ft | 510 kts | 98° |
| 2026-04-21 11:25 | 30.85586 | 105.45044 | 30827 ft | 511 kts | 88° |
| 2026-04-21 11:26 | 30.85904 | 105.49160 | 31155 ft | 511 kts | 78° |
| 2026-04-21 11:26 | 30.86701 | 105.53184 | 31497 ft | 511 kts | 73° |
| 2026-04-21 11:26 | 30.87569 | 105.57196 | 31835 ft | 512 kts | 74° |
| 2026-04-21 11:26 | 30.88432 | 105.61217 | 32171 ft | 513 kts | 74° |
| 2026-04-21 11:27 | 30.89289 | 105.65246 | 32529 ft | 514 kts | 74° |
| 2026-04-21 11:27 | 30.90145 | 105.69301 | 32869 ft | 515 kts | 74° |
| 2026-04-21 11:27 | 30.90994 | 105.73355 | 33217 ft | 516 kts | 74° |
| 2026-04-21 11:27 | 30.91847 | 105.77420 | 33571 ft | 517 kts | 74° |
| 2026-04-21 11:28 | 30.92701 | 105.81490 | 33930 ft | 518 kts | 74° |
| 2026-04-21 11:28 | 30.93559 | 105.85570 | 34234 ft | 519 kts | 74° |
| 2026-04-21 11:28 | 30.94418 | 105.89657 | 34525 ft | 520 kts | 74° |
| 2026-04-21 11:28 | 30.95278 | 105.93756 | 34801 ft | 521 kts | 75° |
| 2026-04-21 11:29 | 30.95844 | 105.97936 | 35068 ft | 524 kts | 85° |
| 2026-04-21 11:29 | 30.95896 | 106.02182 | 35321 ft | 525 kts | 95° |
| 2026-04-21 11:29 | 30.95429 | 106.06397 | 35565 ft | 525 kts | 104° |
| 2026-04-21 11:29 | 30.94516 | 106.10510 | 35806 ft | 524 kts | 108° |
| 2026-04-21 11:30 | 30.93540 | 106.14608 | 36039 ft | 526 kts | 108° |
| 2026-04-21 11:30 | 30.92560 | 106.18718 | 36270 ft | 527 kts | 108° |
| 2026-04-21 11:30 | 30.91580 | 106.22833 | 36512 ft | 529 kts | 108° |
| 2026-04-21 11:30 | 30.90598 | 106.26964 | 36746 ft | 530 kts | 109° |
| 2026-04-21 11:31 | 30.89610 | 106.31104 | 36949 ft | 531 kts | 109° |
| 2026-04-21 11:31 | 30.88524 | 106.35221 | 37013 ft | 532 kts | 115° |
| 2026-04-21 11:31 | 30.84991 | 106.42653 | 37010 ft | 520 kts | 134° |
| 2026-04-21 11:32 | 30.80989 | 106.47749 | 37010 ft | 510 kts | 144° |
| 2026-04-21 11:32 | 30.75846 | 106.53418 | 37005 ft | 509 kts | 145° |
| 2026-04-21 11:33 | 30.70642 | 106.59006 | 37002 ft | 509 kts | 146° |
| 2026-04-21 11:33 | 30.65444 | 106.64589 | 36998 ft | 510 kts | 145° |
| 2026-04-21 11:34 | 30.60237 | 106.70193 | 36994 ft | 510 kts | 145° |
| 2026-04-21 11:34 | 30.55041 | 106.75812 | 37002 ft | 511 kts | 145° |
| 2026-04-21 11:35 | 30.49851 | 106.81438 | 37003 ft | 511 kts | 145° |
| 2026-04-21 11:35 | 30.44650 | 106.87049 | 37001 ft | 511 kts | 146° |
| 2026-04-21 11:36 | 30.39446 | 106.92644 | 36991 ft | 510 kts | 146° |
| 2026-04-21 11:36 | 30.34238 | 106.98229 | 36992 ft | 510 kts | 146° |
| 2026-04-21 11:37 | 30.28971 | 107.03698 | 36985 ft | 508 kts | 147° |
| 2026-04-21 11:37 | 30.23659 | 107.09084 | 36987 ft | 508 kts | 147° |
| 2026-04-21 11:38 | 30.18353 | 107.14480 | 36986 ft | 508 kts | 147° |
| 2026-04-21 11:38 | 30.13069 | 107.19915 | 36983 ft | 509 kts | 146° |
| 2026-04-21 11:39 | 30.07928 | 107.25569 | 36977 ft | 512 kts | 143° |
| 2026-04-21 11:39 | 30.02881 | 107.31394 | 36982 ft | 513 kts | 142° |
| 2026-04-21 11:40 | 29.98562 | 107.38090 | 36988 ft | 530 kts | 123° |
| 2026-04-21 11:40 | 29.95867 | 107.46070 | 36989 ft | 538 kts | 110° |
| 2026-04-21 11:41 | 29.93696 | 107.54334 | 37001 ft | 538 kts | 110° |
| 2026-04-21 11:41 | 29.91604 | 107.62623 | 37006 ft | 540 kts | 104° |
| 2026-04-21 11:42 | 29.91031 | 107.71245 | 37008 ft | 541 kts | 85° |
| 2026-04-21 11:42 | 29.92482 | 107.79646 | 37006 ft | 537 kts | 70° |
| 2026-04-21 11:43 | 29.94601 | 107.87914 | 37009 ft | 538 kts | 71° |
| 2026-04-21 11:43 | 29.96692 | 107.96193 | 37018 ft | 538 kts | 71° |
| 2026-04-21 11:44 | 29.98780 | 108.04488 | 37021 ft | 538 kts | 71° |
| 2026-04-21 11:44 | 30.00866 | 108.12781 | 37021 ft | 539 kts | 71° |
| 2026-04-21 11:45 | 30.02948 | 108.21089 | 37024 ft | 539 kts | 71° |
| 2026-04-21 11:45 | 30.05018 | 108.29402 | 37028 ft | 539 kts | 71° |
| 2026-04-21 11:46 | 30.07082 | 108.37714 | 37035 ft | 539 kts | 71° |
| 2026-04-21 11:46 | 30.09147 | 108.46028 | 37043 ft | 539 kts | 71° |
| 2026-04-21 11:47 | 30.11214 | 108.54342 | 37037 ft | 539 kts | 71° |
| 2026-04-21 11:47 | 30.13405 | 108.62611 | 37046 ft | 538 kts | 68° |
| 2026-04-21 11:48 | 30.15840 | 108.70775 | 37047 ft | 537 kts | 67° |
| 2026-04-21 11:48 | 30.18313 | 108.78921 | 37045 ft | 537 kts | 68° |
| 2026-04-21 11:49 | 30.20715 | 108.87106 | 37046 ft | 538 kts | 69° |
| 2026-04-21 11:49 | 30.23044 | 108.95321 | 37054 ft | 539 kts | 70° |
| 2026-04-21 11:50 | 30.25135 | 109.03651 | 37056 ft | 539 kts | 72° |
| 2026-04-21 11:50 | 30.27087 | 109.12028 | 37060 ft | 539 kts | 72° |
| 2026-04-21 11:51 | 30.29079 | 109.20388 | 37058 ft | 539 kts | 72° |
| 2026-04-21 11:51 | 30.31128 | 109.28723 | 37057 ft | 539 kts | 71° |
| 2026-04-21 11:52 | 30.33184 | 109.37060 | 37061 ft | 539 kts | 72° |
| 2026-04-21 11:52 | 30.35224 | 109.45404 | 37060 ft | 539 kts | 72° |
| 2026-04-21 11:53 | 30.37249 | 109.53756 | 37059 ft | 539 kts | 72° |
| 2026-04-21 11:53 | 30.39145 | 109.62169 | 37056 ft | 541 kts | 79° |
| 2026-04-21 11:54 | 30.40377 | 109.70770 | 37064 ft | 541 kts | 79° |
| 2026-04-21 11:54 | 30.41645 | 109.79366 | 37071 ft | 541 kts | 79° |
| 2026-04-21 11:55 | 30.42920 | 109.87944 | 37075 ft | 540 kts | 78° |
| 2026-04-21 11:55 | 30.44174 | 109.96515 | 37075 ft | 540 kts | 79° |
| 2026-04-21 11:56 | 30.45415 | 110.05101 | 37070 ft | 540 kts | 79° |
| 2026-04-21 11:56 | 30.46649 | 110.13683 | 37074 ft | 540 kts | 79° |
| 2026-04-21 11:57 | 30.47877 | 110.22271 | 37074 ft | 540 kts | 79° |
| 2026-04-21 11:57 | 30.49105 | 110.30851 | 37077 ft | 540 kts | 79° |
| 2026-04-21 11:58 | 30.50329 | 110.39439 | 37079 ft | 540 kts | 79° |
| 2026-04-21 11:58 | 30.51545 | 110.48040 | 37092 ft | 541 kts | 79° |
| 2026-04-21 11:59 | 30.52751 | 110.56642 | 37091 ft | 541 kts | 79° |
| 2026-04-21 11:59 | 30.53963 | 110.65255 | 37098 ft | 541 kts | 79° |
| 2026-04-21 12:00 | 30.55169 | 110.73866 | 37104 ft | 541 kts | 79° |
| 2026-04-21 12:00 | 30.56360 | 110.82428 | 37113 ft | 541 kts | 79° |
| 2026-04-21 12:01 | 30.57565 | 110.91104 | 37116 ft | 541 kts | 79° |
| 2026-04-21 12:01 | 30.58738 | 110.99667 | 37114 ft | 541 kts | 79° |
| 2026-04-21 12:02 | 30.60498 | 111.12617 | 37133 ft | 542 kts | 79° |
| 2026-04-21 12:03 | 30.61672 | 111.21260 | 37128 ft | 542 kts | 79° |
| 2026-04-21 12:03 | 30.62839 | 111.29902 | 37127 ft | 542 kts | 79° |
| 2026-04-21 12:04 | 30.63999 | 111.38558 | 37139 ft | 542 kts | 79° |
| 2026-04-21 12:04 | 30.65143 | 111.47220 | 37138 ft | 543 kts | 82° |
| 2026-04-21 12:05 | 30.65666 | 111.55972 | 37140 ft | 544 kts | 86° |
| 2026-04-21 12:05 | 30.66115 | 111.64740 | 37144 ft | 543 kts | 86° |
| 2026-04-21 12:06 | 30.66555 | 111.73494 | 37147 ft | 543 kts | 86° |
| 2026-04-21 12:06 | 30.67002 | 111.82243 | 37139 ft | 542 kts | 86° |
| 2026-04-21 12:07 | 30.67439 | 111.90982 | 37145 ft | 542 kts | 86° |
| 2026-04-21 12:07 | 30.67882 | 111.99677 | 37145 ft | 542 kts | 85° |
| 2026-04-21 12:08 | 30.68455 | 112.08227 | 37142 ft | 541 kts | 84° |
| 2026-04-21 12:08 | 30.69107 | 112.16938 | 37134 ft | 541 kts | 84° |
| 2026-04-21 12:09 | 30.69726 | 112.25654 | 37129 ft | 541 kts | 84° |
| 2026-04-21 12:09 | 30.70302 | 112.34380 | 37127 ft | 542 kts | 84° |
| 2026-04-21 12:10 | 30.70866 | 112.43106 | 37122 ft | 542 kts | 84° |
| 2026-04-21 12:10 | 30.71429 | 112.51828 | 37119 ft | 541 kts | 84° |
| 2026-04-21 12:11 | 30.71990 | 112.60496 | 37114 ft | 541 kts | 84° |
| 2026-04-21 12:11 | 30.72548 | 112.69224 | 37105 ft | 542 kts | 84° |
| 2026-04-21 12:12 | 30.73104 | 112.77950 | 37101 ft | 541 kts | 84° |
| 2026-04-21 12:12 | 30.73651 | 112.86676 | 37098 ft | 541 kts | 84° |
| 2026-04-21 12:13 | 30.74193 | 112.95399 | 37100 ft | 541 kts | 84° |
| 2026-04-21 12:13 | 30.74729 | 113.04111 | 37097 ft | 540 kts | 84° |
| 2026-04-21 12:14 | 30.75255 | 113.12801 | 37097 ft | 539 kts | 84° |
| 2026-04-21 12:14 | 30.75649 | 113.21495 | 37090 ft | 538 kts | 86° |
| 2026-04-21 12:15 | 30.75815 | 113.30183 | 37083 ft | 537 kts | 88° |
| 2026-04-21 12:15 | 30.75960 | 113.38855 | 37083 ft | 536 kts | 87° |
| 2026-04-21 12:16 | 30.76165 | 113.47498 | 37078 ft | 534 kts | 87° |
| 2026-04-21 12:16 | 30.76388 | 113.56109 | 37076 ft | 532 kts | 87° |
| 2026-04-21 12:17 | 30.76564 | 113.63253 | 37072 ft | 531 kts | 87° |
| 2026-04-21 12:17 | 30.76761 | 113.71820 | 37065 ft | 529 kts | 87° |
| 2026-04-21 12:18 | 30.76975 | 113.81746 | 37062 ft | 528 kts | 87° |
| 2026-04-21 12:18 | 30.77154 | 113.90279 | 37051 ft | 527 kts | 87° |
| 2026-04-21 12:19 | 30.77338 | 113.98782 | 37047 ft | 526 kts | 87° |
| 2026-04-21 12:19 | 30.77516 | 114.05892 | 37048 ft | 524 kts | 86° |
| 2026-04-21 12:20 | 30.77860 | 114.14294 | 37050 ft | 523 kts | 85° |
| 2026-04-21 12:20 | 30.79023 | 114.22571 | 37048 ft | 516 kts | 69° |
| 2026-04-21 12:21 | 30.81538 | 114.30342 | 37050 ft | 513 kts | 65° |
| 2026-04-21 12:21 | 30.84051 | 114.38095 | 37048 ft | 512 kts | 66° |
| 2026-04-21 12:22 | 30.86505 | 114.45859 | 37040 ft | 510 kts | 67° |
| 2026-04-21 12:22 | 30.88987 | 114.53587 | 37038 ft | 509 kts | 66° |
| 2026-04-21 12:23 | 30.91497 | 114.61279 | 37031 ft | 507 kts | 67° |
| 2026-04-21 12:23 | 30.93988 | 114.68963 | 37029 ft | 506 kts | 67° |
| 2026-04-21 12:24 | 30.96463 | 114.76632 | 37026 ft | 505 kts | 67° |
| 2026-04-21 12:24 | 30.98931 | 114.84282 | 37025 ft | 504 kts | 68° |
| 2026-04-21 12:25 | 31.01370 | 114.91875 | 37023 ft | 503 kts | 68° |
| 2026-04-21 12:25 | 31.03820 | 114.99506 | 37020 ft | 502 kts | 68° |
| 2026-04-21 12:26 | 31.06253 | 115.07141 | 37012 ft | 502 kts | 69° |
| 2026-04-21 12:26 | 31.08686 | 115.14771 | 37013 ft | 502 kts | 69° |
| 2026-04-21 12:27 | 31.11115 | 115.22403 | 37013 ft | 502 kts | 69° |
| 2026-04-21 12:27 | 31.13534 | 115.30043 | 37007 ft | 501 kts | 69° |
| 2026-04-21 12:28 | 31.15986 | 115.37656 | 37012 ft | 501 kts | 69° |
| 2026-04-21 12:28 | 31.18467 | 115.45259 | 37000 ft | 501 kts | 69° |
| 2026-04-21 12:29 | 31.20939 | 115.52861 | 36874 ft | 500 kts | 69° |
| 2026-04-21 12:29 | 31.22167 | 115.56659 | 36232 ft | 500 kts | 70° |
| 2026-04-21 12:29 | 31.23391 | 115.60476 | 35540 ft | 502 kts | 70° |
| 2026-04-21 12:29 | 31.24613 | 115.64297 | 34847 ft | 503 kts | 70° |
| 2026-04-21 12:30 | 31.25843 | 115.68143 | 34170 ft | 505 kts | 71° |
| 2026-04-21 12:30 | 31.27075 | 115.71999 | 33405 ft | 507 kts | 71° |
| 2026-04-21 12:30 | 31.28310 | 115.75869 | 32575 ft | 509 kts | 70° |
| 2026-04-21 12:30 | 31.29551 | 115.79750 | 31733 ft | 512 kts | 70° |
| 2026-04-21 12:31 | 31.30803 | 115.83654 | 30885 ft | 513 kts | 70° |
| 2026-04-21 12:31 | 31.32055 | 115.87569 | 30052 ft | 515 kts | 70° |
| 2026-04-21 12:31 | 31.33314 | 115.91496 | 29042 ft | 517 kts | 69° |
| 2026-04-21 12:31 | 31.34589 | 115.95422 | 28229 ft | 515 kts | 69° |
| 2026-04-21 12:32 | 31.35871 | 115.99327 | 27583 ft | 514 kts | 69° |
| 2026-04-21 12:32 | 31.37153 | 116.03216 | 26959 ft | 510 kts | 69° |
| 2026-04-21 12:32 | 31.38420 | 116.07076 | 26351 ft | 506 kts | 69° |
| 2026-04-21 12:32 | 31.39671 | 116.10905 | 25764 ft | 502 kts | 69° |
| 2026-04-21 12:33 | 31.40904 | 116.14701 | 25188 ft | 497 kts | 69° |
| 2026-04-21 12:33 | 31.42120 | 116.18464 | 24618 ft | 491 kts | 69° |
| 2026-04-21 12:33 | 31.43317 | 116.22183 | 24111 ft | 486 kts | 69° |
| 2026-04-21 12:33 | 31.44506 | 116.25865 | 23629 ft | 482 kts | 69° |
| 2026-04-21 12:34 | 31.45688 | 116.29524 | 23077 ft | 478 kts | 69° |
| 2026-04-21 12:34 | 31.46860 | 116.33151 | 22435 ft | 474 kts | 69° |
| 2026-04-21 12:34 | 31.48007 | 116.36699 | 21810 ft | 470 kts | 69° |
| 2026-04-21 12:34 | 31.49157 | 116.40269 | 21191 ft | 466 kts | 69° |
| 2026-04-21 12:35 | 31.50294 | 116.43811 | 20587 ft | 463 kts | 69° |
| 2026-04-21 12:35 | 31.51439 | 116.47377 | 19982 ft | 460 kts | 69° |
| 2026-04-21 12:35 | 31.52550 | 116.50829 | 19412 ft | 457 kts | 70° |
| 2026-04-21 12:35 | 31.53669 | 116.54304 | 18841 ft | 455 kts | 70° |
| 2026-04-21 12:36 | 31.54782 | 116.57763 | 18274 ft | 452 kts | 70° |
| 2026-04-21 12:36 | 31.55888 | 116.61204 | 17666 ft | 450 kts | 70° |
| 2026-04-21 12:36 | 31.56983 | 116.64618 | 17133 ft | 445 kts | 70° |
| 2026-04-21 12:36 | 31.58065 | 116.68002 | 16616 ft | 440 kts | 70° |
| 2026-04-21 12:37 | 31.59126 | 116.71331 | 16123 ft | 434 kts | 70° |
| 2026-04-21 12:37 | 31.60174 | 116.74627 | 15638 ft | 427 kts | 70° |
| 2026-04-21 12:37 | 31.61202 | 116.77870 | 15156 ft | 421 kts | 70° |
| 2026-04-21 12:37 | 31.62214 | 116.81064 | 14689 ft | 415 kts | 70° |
| 2026-04-21 12:38 | 31.63213 | 116.84209 | 14225 ft | 408 kts | 70° |
| 2026-04-21 12:38 | 31.64198 | 116.87306 | 13770 ft | 402 kts | 70° |
| 2026-04-21 12:38 | 31.65166 | 116.90352 | 13265 ft | 395 kts | 70° |
| 2026-04-21 12:38 | 31.66259 | 116.93284 | 12754 ft | 390 kts | 58° |
| 2026-04-21 12:39 | 31.67955 | 116.95713 | 12259 ft | 383 kts | 40° |
| 2026-04-21 12:39 | 31.70150 | 116.97400 | 11776 ft | 375 kts | 22° |
| 2026-04-21 12:39 | 31.72614 | 116.98245 | 11293 ft | 366 kts | 5° |
| 2026-04-21 12:39 | 31.75123 | 116.98239 | 10817 ft | 357 kts | 348° |
| 2026-04-21 12:40 | 31.77468 | 116.97436 | 10352 ft | 348 kts | 332° |
| 2026-04-21 12:40 | 31.79543 | 116.96078 | 10176 ft | 333 kts | 326° |
| 2026-04-21 12:40 | 31.81504 | 116.94747 | 10106 ft | 319 kts | 326° |
| 2026-04-21 12:40 | 31.83395 | 116.93474 | 9999 ft | 308 kts | 326° |
| 2026-04-21 12:41 | 31.85225 | 116.92243 | 9845 ft | 299 kts | 326° |
| 2026-04-21 12:41 | 31.87017 | 116.91035 | 9545 ft | 296 kts | 327° |
| 2026-04-21 12:41 | 31.88797 | 116.89831 | 9206 ft | 294 kts | 327° |
| 2026-04-21 12:41 | 31.90563 | 116.88634 | 8876 ft | 292 kts | 327° |
| 2026-04-21 12:42 | 31.92317 | 116.87445 | 8543 ft | 290 kts | 327° |
| 2026-04-21 12:42 | 31.94060 | 116.86260 | 8222 ft | 288 kts | 327° |
| 2026-04-21 12:42 | 31.95772 | 116.85096 | 7902 ft | 287 kts | 327° |
| 2026-04-21 12:42 | 31.97494 | 116.83924 | 7583 ft | 285 kts | 328° |
| 2026-04-21 12:43 | 31.99206 | 116.82758 | 7266 ft | 284 kts | 328° |
| 2026-04-21 12:43 | 32.00905 | 116.81604 | 7038 ft | 282 kts | 328° |
| 2026-04-21 12:43 | 32.02600 | 116.80453 | 6576 ft | 280 kts | 328° |
| 2026-04-21 12:43 | 32.04276 | 116.79313 | 6091 ft | 275 kts | 328° |
| 2026-04-21 12:44 | 32.05873 | 116.78228 | 5984 ft | 254 kts | 328° |
| 2026-04-21 12:44 | 32.07339 | 116.77233 | 5917 ft | 232 kts | 328° |
| 2026-04-21 12:44 | 32.08707 | 116.76310 | 5828 ft | 225 kts | 330° |
| 2026-04-21 12:44 | 32.10205 | 116.75882 | 5730 ft | 225 kts | 5° |
| 2026-04-21 12:45 | 32.11636 | 116.76530 | 5447 ft | 223 kts | 41° |
| 2026-04-21 12:45 | 32.12547 | 116.77980 | 5213 ft | 218 kts | 61° |
| 2026-04-21 12:45 | 32.13296 | 116.79525 | 4899 ft | 217 kts | 61° |
| 2026-04-21 12:45 | 32.14044 | 116.81049 | 4566 ft | 212 kts | 61° |
| 2026-04-21 12:46 | 32.14775 | 116.82530 | 4261 ft | 207 kts | 61° |
| 2026-04-21 12:46 | 32.15454 | 116.84018 | 3988 ft | 204 kts | 74° |
| 2026-04-21 12:46 | 32.15473 | 116.85629 | 3687 ft | 196 kts | 112° |
| 2026-04-21 12:46 | 32.14675 | 116.86864 | 3393 ft | 190 kts | 147° |
| 2026-04-21 12:47 | 32.13545 | 116.87645 | 3120 ft | 187 kts | 150° |
| 2026-04-21 12:47 | 32.12444 | 116.88416 | 2974 ft | 182 kts | 149° |
| 2026-04-21 12:47 | 32.11378 | 116.89151 | 2772 ft | 177 kts | 149° |
| 2026-04-21 12:47 | 32.10326 | 116.89869 | 2552 ft | 172 kts | 149° |
| 2026-04-21 12:48 | 32.09339 | 116.90539 | 2331 ft | 160 kts | 148° |
| 2026-04-21 12:48 | 32.08424 | 116.91160 | 2141 ft | 143 kts | 147° |
| 2026-04-21 12:48 | 32.07594 | 116.91723 | 1942 ft | 134 kts | 146° |
| 2026-04-21 12:48 | 32.06797 | 116.92265 | 1774 ft | 130 kts | 146° |
| 2026-04-21 12:49 | 32.06015 | 116.92797 | 1591 ft | 129 kts | 145° |
| 2026-04-21 12:49 | 32.05237 | 116.93324 | 1417 ft | 129 kts | 145° |
| 2026-04-21 12:49 | 32.04459 | 116.93853 | 1239 ft | 130 kts | 146° |
| 2026-04-21 12:49 | 32.03667 | 116.94390 | 1052 ft | 133 kts | 147° |
| 2026-04-21 12:50 | 32.02864 | 116.94935 | 861 ft | 134 kts | 148° |
| 2026-04-21 12:50 | 32.02044 | 116.95490 | 684 ft | 137 kts | 147° |
| 2026-04-21 12:50 | 32.01238 | 116.96038 | 479 ft | 136 kts | 148° |
| 2026-04-21 12:50 | 32.00408 | 116.96593 | 331 ft | 138 kts | 149° |
| 2026-04-21 12:51 | 31.99583 | 116.97140 | 222 ft | 122 kts | 147° |
| 2026-04-21 12:51 | 31.99004 | 116.97550 | 218 ft | 74 kts | 150° |
| 2026-04-21 12:51 | 31.98709 | 116.97702 | 216 ft | 30 kts | 176° |
| 2026-04-21 12:51 | 31.98642 | 116.97700 | 221 ft | 7 kts | 182° |
| 2026-04-21 12:52 | 31.98599 | 116.97698 | 221 ft | 5 kts | 176° |
| 2026-04-21 12:52 | 31.98569 | 116.97706 | 219 ft | 4 kts | 175° |
| 2026-04-21 12:52 | 31.98549 | 116.97706 | 222 ft | 2 kts | 186° |
| 2026-04-21 12:52 | 31.98541 | 116.97703 | 219 ft | 0 kts | 195° |
| 2026-04-21 12:53 | 31.98537 | 116.97702 | 218 ft | 1 kts | 196° |
| 2026-04-21 12:53 | 31.98528 | 116.97688 | 218 ft | 3 kts | 233° |
| 2026-04-21 12:53 | 31.98527 | 116.97651 | 220 ft | 6 kts | 289° |
| 2026-04-21 12:53 | 31.98566 | 116.97610 | 218 ft | 9 kts | 329° |
| 2026-04-21 12:54 | 31.98629 | 116.97569 | 218 ft | 11 kts | 330° |
| 2026-04-21 12:54 | 31.98700 | 116.97522 | 217 ft | 12 kts | 331° |
| 2026-04-21 12:54 | 31.98779 | 116.97468 | 219 ft | 14 kts | 326° |
| 2026-04-21 12:54 | 31.98864 | 116.97409 | 218 ft | 15 kts | 330° |
| 2026-04-21 12:55 | 31.98956 | 116.97347 | 218 ft | 16 kts | 327° |
| 2026-04-21 12:55 | 31.99055 | 116.97280 | 219 ft | 17 kts | 330° |
| 2026-04-21 12:55 | 31.99125 | 116.97207 | 218 ft | 13 kts | 300° |
| 2026-04-21 12:55 | 31.99141 | 116.97163 | 218 ft | 14 kts | 289° |
| 2026-04-21 12:56 | 31.99149 | 116.97131 | 218 ft | 14 kts | 282° |
| 2026-04-21 12:56 | 31.99147 | 116.97013 | 220 ft | 15 kts | 261° |
| 2026-04-21 12:56 | 31.99131 | 116.96886 | 218 ft | 16 kts | 267° |
| 2026-04-21 12:56 | 31.99110 | 116.96818 | 218 ft | 8 kts | 208° |
| 2026-04-21 12:57 | 31.99051 | 116.96804 | 218 ft | 2 kts | 189° |